sensor_id;sensor_type;location;lat;lon;timestamp;P1;durP1;ratioP1;P2;durP2;ratioP2
39400;SDS011;54391;50.000;7.360;2023-11-21T00:01:17;1.33;;;0.90;;
39400;SDS011;54391;50.000;7.360;2023-11-21T00:03:44;1.17;;;0.60;;
39400;SDS011;54391;50.000;7.360;2023-11-21T00:06:12;1.33;;;0.90;;
39400;SDS011;54391;50.000;7.360;2023-11-21T00:08:41;1.55;;;0.80;;
39400;SDS011;54391;50.000;7.360;2023-11-21T00:11:09;1.33;;;0.77;;
39400;SDS011;54391;50.000;7.360;2023-11-21T00:13:36;2.28;;;1.30;;
39400;SDS011;54391;50.000;7.360;2023-11-21T00:16:04;3.15;;;1.20;;
39400;SDS011;54391;50.000;7.360;2023-11-21T00:18:33;3.22;;;1.30;;
39400;SDS011;54391;50.000;7.360;2023-11-21T00:21:01;0.90;;;0.73;;
39400;SDS011;54391;50.000;7.360;2023-11-21T00:23:28;1.58;;;0.77;;
39400;SDS011;54391;50.000;7.360;2023-11-21T00:25:57;1.00;;;0.70;;
39400;SDS011;54391;50.000;7.360;2023-11-21T00:28:25;1.98;;;0.73;;
39400;SDS011;54391;50.000;7.360;2023-11-21T00:30:53;1.15;;;0.73;;
39400;SDS011;54391;50.000;7.360;2023-11-21T00:33:20;0.90;;;0.70;;
39400;SDS011;54391;50.000;7.360;2023-11-21T00:35:48;1.35;;;0.70;;
39400;SDS011;54391;50.000;7.360;2023-11-21T00:38:15;0.50;;;0.40;;
39400;SDS011;54391;50.000;7.360;2023-11-21T00:40:45;0.15;;;0.10;;
39400;SDS011;54391;50.000;7.360;2023-11-21T00:43:13;0.10;;;0.08;;
39400;SDS011;54391;50.000;7.360;2023-11-21T00:45:41;0.10;;;0.00;;
39400;SDS011;54391;50.000;7.360;2023-11-21T00:48:08;0.20;;;0.10;;
39400;SDS011;54391;50.000;7.360;2023-11-21T00:50:37;0.00;;;0.00;;
39400;SDS011;54391;50.000;7.360;2023-11-21T00:53:05;0.17;;;0.10;;
39400;SDS011;54391;50.000;7.360;2023-11-21T00:55:34;0.20;;;0.08;;
39400;SDS011;54391;50.000;7.360;2023-11-21T00:58:01;0.55;;;0.08;;
39400;SDS011;54391;50.000;7.360;2023-11-21T01:00:31;0.40;;;0.10;;
39400;SDS011;54391;50.000;7.360;2023-11-21T01:02:58;0.22;;;0.10;;
39400;SDS011;54391;50.000;7.360;2023-11-21T01:05:28;0.20;;;0.10;;
39400;SDS011;54391;50.000;7.360;2023-11-21T01:07:56;0.32;;;0.10;;
39400;SDS011;54391;50.000;7.360;2023-11-21T01:10:23;0.28;;;0.10;;
39400;SDS011;54391;50.000;7.360;2023-11-21T01:12:51;0.10;;;0.00;;
39400;SDS011;54391;50.000;7.360;2023-11-21T01:15:18;0.13;;;0.10;;
39400;SDS011;54391;50.000;7.360;2023-11-21T01:17:47;0.20;;;0.10;;
39400;SDS011;54391;50.000;7.360;2023-11-21T01:20:15;0.30;;;0.20;;
39400;SDS011;54391;50.000;7.360;2023-11-21T01:22:42;0.20;;;0.10;;
39400;SDS011;54391;50.000;7.360;2023-11-21T01:25:10;0.43;;;0.20;;
39400;SDS011;54391;50.000;7.360;2023-11-21T01:27:39;0.98;;;0.20;;
39400;SDS011;54391;50.000;7.360;2023-11-21T01:30:07;0.30;;;0.20;;
39400;SDS011;54391;50.000;7.360;2023-11-21T01:32:35;0.20;;;0.10;;
39400;SDS011;54391;50.000;7.360;2023-11-21T01:35:04;0.10;;;0.10;;
39400;SDS011;54391;50.000;7.360;2023-11-21T01:37:32;0.43;;;0.10;;
39400;SDS011;54391;50.000;7.360;2023-11-21T01:40:00;0.20;;;0.10;;
39400;SDS011;54391;50.000;7.360;2023-11-21T01:42:28;0.20;;;0.10;;
39400;SDS011;54391;50.000;7.360;2023-11-21T01:44:55;0.15;;;0.10;;
39400;SDS011;54391;50.000;7.360;2023-11-21T01:47:23;0.88;;;0.20;;
39400;SDS011;54391;50.000;7.360;2023-11-21T01:49:50;0.75;;;0.10;;
39400;SDS011;54391;50.000;7.360;2023-11-21T01:52:20;0.32;;;0.20;;
39400;SDS011;54391;50.000;7.360;2023-11-21T01:54:47;0.17;;;0.10;;
39400;SDS011;54391;50.000;7.360;2023-11-21T01:57:15;1.30;;;0.28;;
39400;SDS011;54391;50.000;7.360;2023-11-21T01:59:43;0.77;;;0.40;;
39400;SDS011;54391;50.000;7.360;2023-11-21T02:02:13;0.80;;;0.47;;
39400;SDS011;54391;50.000;7.360;2023-11-21T02:04:42;1.00;;;0.40;;
39400;SDS011;54391;50.000;7.360;2023-11-21T02:07:09;0.77;;;0.40;;
39400;SDS011;54391;50.000;7.360;2023-11-21T02:09:38;0.90;;;0.63;;
39400;SDS011;54391;50.000;7.360;2023-11-21T02:12:08;0.68;;;0.40;;
39400;SDS011;54391;50.000;7.360;2023-11-21T02:14:38;1.00;;;0.63;;
39400;SDS011;54391;50.000;7.360;2023-11-21T02:17:06;0.70;;;0.40;;
39400;SDS011;54391;50.000;7.360;2023-11-21T02:19:33;1.30;;;0.60;;
39400;SDS011;54391;50.000;7.360;2023-11-21T02:22:01;1.55;;;0.47;;
39400;SDS011;54391;50.000;7.360;2023-11-21T02:24:33;1.00;;;0.70;;
39400;SDS011;54391;50.000;7.360;2023-11-21T02:27:00;0.70;;;0.47;;
39400;SDS011;54391;50.000;7.360;2023-11-21T02:29:28;1.40;;;0.63;;
39400;SDS011;54391;50.000;7.360;2023-11-21T02:31:55;1.50;;;0.70;;
39400;SDS011;54391;50.000;7.360;2023-11-21T02:34:23;2.67;;;0.88;;
39400;SDS011;54391;50.000;7.360;2023-11-21T02:36:51;1.08;;;0.82;;
39400;SDS011;54391;50.000;7.360;2023-11-21T02:39:19;1.48;;;0.80;;
39400;SDS011;54391;50.000;7.360;2023-11-21T02:41:49;2.25;;;1.02;;
39400;SDS011;54391;50.000;7.360;2023-11-21T02:44:16;2.00;;;1.23;;
39400;SDS011;54391;50.000;7.360;2023-11-21T02:46:44;2.15;;;1.15;;
39400;SDS011;54391;50.000;7.360;2023-11-21T02:49:12;2.00;;;1.25;;
39400;SDS011;54391;50.000;7.360;2023-11-21T02:51:39;2.92;;;1.77;;
39400;SDS011;54391;50.000;7.360;2023-11-21T02:54:07;3.42;;;2.00;;
39400;SDS011;54391;50.000;7.360;2023-11-21T02:56:35;3.35;;;2.20;;
39400;SDS011;54391;50.000;7.360;2023-11-21T02:59:04;4.03;;;2.05;;
39400;SDS011;54391;50.000;7.360;2023-11-21T03:01:31;3.05;;;2.17;;
39400;SDS011;54391;50.000;7.360;2023-11-21T03:03:59;2.65;;;2.05;;
39400;SDS011;54391;50.000;7.360;2023-11-21T03:06:27;3.10;;;1.83;;
39400;SDS011;54391;50.000;7.360;2023-11-21T03:08:54;3.17;;;1.88;;
39400;SDS011;54391;50.000;7.360;2023-11-21T03:11:22;3.53;;;2.40;;
39400;SDS011;54391;50.000;7.360;2023-11-21T03:13:49;3.58;;;2.55;;
39400;SDS011;54391;50.000;7.360;2023-11-21T03:16:18;3.97;;;3.00;;
39400;SDS011;54391;50.000;7.360;2023-11-21T03:18:46;4.40;;;2.63;;
39400;SDS011;54391;50.000;7.360;2023-11-21T03:21:13;4.68;;;2.50;;
39400;SDS011;54391;50.000;7.360;2023-11-21T03:23:41;3.55;;;2.42;;
39400;SDS011;54391;50.000;7.360;2023-11-21T03:26:11;3.28;;;2.33;;
39400;SDS011;54391;50.000;7.360;2023-11-21T03:28:42;3.08;;;2.30;;
39400;SDS011;54391;50.000;7.360;2023-11-21T03:31:09;3.10;;;2.30;;
39400;SDS011;54391;50.000;7.360;2023-11-21T03:33:38;2.92;;;2.00;;
39400;SDS011;54391;50.000;7.360;2023-11-21T03:36:06;4.90;;;2.85;;
39400;SDS011;54391;50.000;7.360;2023-11-21T03:38:34;3.55;;;2.28;;
39400;SDS011;54391;50.000;7.360;2023-11-21T03:41:02;4.15;;;2.63;;
39400;SDS011;54391;50.000;7.360;2023-11-21T03:43:29;3.00;;;2.25;;
39400;SDS011;54391;50.000;7.360;2023-11-21T03:45:57;3.55;;;2.58;;
39400;SDS011;54391;50.000;7.360;2023-11-21T03:48:24;4.18;;;2.42;;
39400;SDS011;54391;50.000;7.360;2023-11-21T03:50:53;3.45;;;2.30;;
39400;SDS011;54391;50.000;7.360;2023-11-21T03:53:21;3.45;;;2.20;;
39400;SDS011;54391;50.000;7.360;2023-11-21T03:55:48;3.38;;;2.40;;
39400;SDS011;54391;50.000;7.360;2023-11-21T03:58:16;3.10;;;2.28;;
39400;SDS011;54391;50.000;7.360;2023-11-21T04:00:44;3.28;;;2.17;;
39400;SDS011;54391;50.000;7.360;2023-11-21T04:03:11;3.08;;;2.40;;
39400;SDS011;54391;50.000;7.360;2023-11-21T04:05:39;3.53;;;2.42;;
39400;SDS011;54391;50.000;7.360;2023-11-21T04:08:09;3.08;;;2.10;;
39400;SDS011;54391;50.000;7.360;2023-11-21T04:10:36;2.92;;;2.10;;
39400;SDS011;54391;50.000;7.360;2023-11-21T04:13:05;3.03;;;2.22;;
39400;SDS011;54391;50.000;7.360;2023-11-21T04:15:32;3.50;;;2.47;;
39400;SDS011;54391;50.000;7.360;2023-11-21T04:18:00;3.53;;;2.25;;
39400;SDS011;54391;50.000;7.360;2023-11-21T04:20:28;3.97;;;2.67;;
39400;SDS011;54391;50.000;7.360;2023-11-21T04:22:55;4.10;;;2.30;;
39400;SDS011;54391;50.000;7.360;2023-11-21T04:25:24;4.70;;;2.65;;
39400;SDS011;54391;50.000;7.360;2023-11-21T04:27:52;3.95;;;2.35;;
39400;SDS011;54391;50.000;7.360;2023-11-21T04:30:20;4.00;;;2.60;;
39400;SDS011;54391;50.000;7.360;2023-11-21T04:32:47;4.13;;;2.58;;
39400;SDS011;54391;50.000;7.360;2023-11-21T04:35:16;4.00;;;2.58;;
39400;SDS011;54391;50.000;7.360;2023-11-21T04:37:43;2.90;;;2.03;;
39400;SDS011;54391;50.000;7.360;2023-11-21T04:40:11;3.40;;;1.80;;
39400;SDS011;54391;50.000;7.360;2023-11-21T04:42:40;2.70;;;1.65;;
39400;SDS011;54391;50.000;7.360;2023-11-21T04:45:08;2.95;;;2.20;;
39400;SDS011;54391;50.000;7.360;2023-11-21T04:47:37;4.03;;;2.28;;
39400;SDS011;54391;50.000;7.360;2023-11-21T04:50:05;3.20;;;2.10;;
39400;SDS011;54391;50.000;7.360;2023-11-21T04:52:32;4.13;;;2.60;;
39400;SDS011;54391;50.000;7.360;2023-11-21T04:55:00;3.10;;;2.28;;
39400;SDS011;54391;50.000;7.360;2023-11-21T04:57:27;3.55;;;2.38;;
39400;SDS011;54391;50.000;7.360;2023-11-21T04:59:56;3.95;;;2.75;;
39400;SDS011;54391;50.000;7.360;2023-11-21T05:02:24;4.00;;;2.80;;
39400;SDS011;54391;50.000;7.360;2023-11-21T05:04:51;3.45;;;2.80;;
39400;SDS011;54391;50.000;7.360;2023-11-21T05:07:21;4.07;;;2.60;;
39400;SDS011;54391;50.000;7.360;2023-11-21T05:09:49;5.57;;;2.90;;
39400;SDS011;54391;50.000;7.360;2023-11-21T05:12:16;4.53;;;3.17;;
39400;SDS011;54391;50.000;7.360;2023-11-21T05:14:44;4.38;;;2.90;;
39400;SDS011;54391;50.000;7.360;2023-11-21T05:17:13;5.43;;;3.28;;
39400;SDS011;54391;50.000;7.360;2023-11-21T05:19:41;4.80;;;3.15;;
39400;SDS011;54391;50.000;7.360;2023-11-21T05:22:10;5.22;;;3.50;;
39400;SDS011;54391;50.000;7.360;2023-11-21T05:24:38;5.32;;;3.20;;
39400;SDS011;54391;50.000;7.360;2023-11-21T05:27:06;4.40;;;3.13;;
39400;SDS011;54391;50.000;7.360;2023-11-21T05:29:34;4.30;;;3.20;;
39400;SDS011;54391;50.000;7.360;2023-11-21T05:32:03;5.80;;;3.35;;
39400;SDS011;54391;50.000;7.360;2023-11-21T05:34:32;4.93;;;3.30;;
39400;SDS011;54391;50.000;7.360;2023-11-21T05:37:00;5.22;;;3.33;;
39400;SDS011;54391;50.000;7.360;2023-11-21T05:39:27;4.90;;;2.90;;
39400;SDS011;54391;50.000;7.360;2023-11-21T05:41:55;3.38;;;2.50;;
39400;SDS011;54391;50.000;7.360;2023-11-21T05:44:23;3.83;;;2.65;;
39400;SDS011;54391;50.000;7.360;2023-11-21T05:46:50;4.90;;;2.65;;
39400;SDS011;54391;50.000;7.360;2023-11-21T05:49:18;4.20;;;2.53;;
39400;SDS011;54391;50.000;7.360;2023-11-21T05:51:48;3.83;;;2.67;;
39400;SDS011;54391;50.000;7.360;2023-11-21T05:54:19;4.10;;;2.67;;
39400;SDS011;54391;50.000;7.360;2023-11-21T05:56:47;4.47;;;2.80;;
39400;SDS011;54391;50.000;7.360;2023-11-21T05:59:14;5.00;;;2.42;;
39400;SDS011;54391;50.000;7.360;2023-11-21T06:01:42;4.47;;;3.33;;
39400;SDS011;54391;50.000;7.360;2023-11-21T06:04:11;4.60;;;3.00;;
39400;SDS011;54391;50.000;7.360;2023-11-21T06:06:38;4.10;;;2.70;;
39400;SDS011;54391;50.000;7.360;2023-11-21T06:09:07;4.32;;;2.80;;
39400;SDS011;54391;50.000;7.360;2023-11-21T06:11:35;5.38;;;2.88;;
39400;SDS011;54391;50.000;7.360;2023-11-21T06:14:02;3.88;;;2.63;;
39400;SDS011;54391;50.000;7.360;2023-11-21T06:16:33;5.32;;;2.80;;
39400;SDS011;54391;50.000;7.360;2023-11-21T06:19:00;3.53;;;2.47;;
39400;SDS011;54391;50.000;7.360;2023-11-21T06:21:28;4.00;;;2.75;;
39400;SDS011;54391;50.000;7.360;2023-11-21T06:23:55;4.13;;;2.70;;
39400;SDS011;54391;50.000;7.360;2023-11-21T06:26:24;4.20;;;2.45;;
39400;SDS011;54391;50.000;7.360;2023-11-21T06:28:52;3.45;;;2.30;;
39400;SDS011;54391;50.000;7.360;2023-11-21T06:31:19;5.60;;;2.78;;
39400;SDS011;54391;50.000;7.360;2023-11-21T06:33:48;4.70;;;2.97;;
39400;SDS011;54391;50.000;7.360;2023-11-21T06:36:17;3.47;;;2.28;;
39400;SDS011;54391;50.000;7.360;2023-11-21T06:38:44;4.55;;;2.60;;
39400;SDS011;54391;50.000;7.360;2023-11-21T06:41:12;4.57;;;2.75;;
39400;SDS011;54391;50.000;7.360;2023-11-21T06:43:41;3.58;;;2.50;;
39400;SDS011;54391;50.000;7.360;2023-11-21T06:46:12;3.95;;;2.30;;
39400;SDS011;54391;50.000;7.360;2023-11-21T06:48:40;4.03;;;2.65;;
39400;SDS011;54391;50.000;7.360;2023-11-21T06:51:07;4.68;;;2.65;;
39400;SDS011;54391;50.000;7.360;2023-11-21T06:53:35;3.95;;;2.83;;
39400;SDS011;54391;50.000;7.360;2023-11-21T06:56:03;4.45;;;2.80;;
39400;SDS011;54391;50.000;7.360;2023-11-21T06:58:30;3.67;;;2.55;;
39400;SDS011;54391;50.000;7.360;2023-11-21T07:01:01;5.20;;;2.63;;
39400;SDS011;54391;50.000;7.360;2023-11-21T07:03:28;4.20;;;2.85;;
39400;SDS011;54391;50.000;7.360;2023-11-21T07:05:56;5.82;;;3.38;;
39400;SDS011;54391;50.000;7.360;2023-11-21T07:08:23;5.68;;;3.45;;
39400;SDS011;54391;50.000;7.360;2023-11-21T07:10:51;5.32;;;3.55;;
39400;SDS011;54391;50.000;7.360;2023-11-21T07:13:18;8.30;;;4.55;;
39400;SDS011;54391;50.000;7.360;2023-11-21T07:15:46;5.55;;;3.88;;
39400;SDS011;54391;50.000;7.360;2023-11-21T07:18:16;6.95;;;4.93;;
39400;SDS011;54391;50.000;7.360;2023-11-21T07:20:43;6.32;;;4.65;;
39400;SDS011;54391;50.000;7.360;2023-11-21T07:23:11;7.28;;;5.03;;
39400;SDS011;54391;50.000;7.360;2023-11-21T07:25:38;8.30;;;5.63;;
39400;SDS011;54391;50.000;7.360;2023-11-21T07:28:07;8.30;;;5.53;;
39400;SDS011;54391;50.000;7.360;2023-11-21T07:30:34;9.85;;;7.35;;
39400;SDS011;54391;50.000;7.360;2023-11-21T07:33:03;13.45;;;10.60;;
39400;SDS011;54391;50.000;7.360;2023-11-21T07:35:32;8.68;;;6.80;;
39400;SDS011;54391;50.000;7.360;2023-11-21T07:37:59;8.65;;;6.32;;
39400;SDS011;54391;50.000;7.360;2023-11-21T07:40:27;8.05;;;5.35;;
39400;SDS011;54391;50.000;7.360;2023-11-21T07:42:54;8.70;;;6.10;;
39400;SDS011;54391;50.000;7.360;2023-11-21T07:45:22;6.90;;;5.32;;
39400;SDS011;54391;50.000;7.360;2023-11-21T07:47:52;8.45;;;6.15;;
39400;SDS011;54391;50.000;7.360;2023-11-21T07:50:20;8.35;;;5.85;;
39400;SDS011;54391;50.000;7.360;2023-11-21T07:52:49;7.90;;;5.30;;
39400;SDS011;54391;50.000;7.360;2023-11-21T07:55:17;7.20;;;5.25;;
39400;SDS011;54391;50.000;7.360;2023-11-21T07:57:44;7.78;;;5.47;;
39400;SDS011;54391;50.000;7.360;2023-11-21T08:00:12;7.57;;;5.70;;
39400;SDS011;54391;50.000;7.360;2023-11-21T08:02:40;7.70;;;5.57;;
39400;SDS011;54391;50.000;7.360;2023-11-21T08:05:11;7.13;;;5.43;;
39400;SDS011;54391;50.000;7.360;2023-11-21T08:07:39;10.25;;;6.57;;
39400;SDS011;54391;50.000;7.360;2023-11-21T08:10:08;9.45;;;6.78;;
39400;SDS011;54391;50.000;7.360;2023-11-21T08:12:36;8.82;;;5.95;;
39400;SDS011;54391;50.000;7.360;2023-11-21T08:15:05;9.55;;;6.28;;
39400;SDS011;54391;50.000;7.360;2023-11-21T08:17:33;7.53;;;6.32;;
39400;SDS011;54391;50.000;7.360;2023-11-21T08:20:00;10.80;;;8.05;;
39400;SDS011;54391;50.000;7.360;2023-11-21T08:22:28;12.05;;;9.00;;
39400;SDS011;54391;50.000;7.360;2023-11-21T08:24:57;10.95;;;8.65;;
39400;SDS011;54391;50.000;7.360;2023-11-21T08:27:26;11.55;;;8.15;;
39400;SDS011;54391;50.000;7.360;2023-11-21T08:29:53;14.23;;;9.68;;
39400;SDS011;54391;50.000;7.360;2023-11-21T08:32:22;12.30;;;9.32;;
39400;SDS011;54391;50.000;7.360;2023-11-21T08:34:50;11.98;;;9.00;;
39400;SDS011;54391;50.000;7.360;2023-11-21T08:37:17;11.40;;;8.85;;
39400;SDS011;54391;50.000;7.360;2023-11-21T08:39:46;10.93;;;8.15;;
39400;SDS011;54391;50.000;7.360;2023-11-21T08:42:14;9.07;;;6.85;;
39400;SDS011;54391;50.000;7.360;2023-11-21T08:44:44;10.70;;;7.72;;
39400;SDS011;54391;50.000;7.360;2023-11-21T08:47:12;11.65;;;9.13;;
39400;SDS011;54391;50.000;7.360;2023-11-21T08:49:39;11.18;;;8.80;;
39400;SDS011;54391;50.000;7.360;2023-11-21T08:52:07;12.68;;;10.75;;
39400;SDS011;54391;50.000;7.360;2023-11-21T08:54:35;12.75;;;10.38;;
39400;SDS011;54391;50.000;7.360;2023-11-21T08:57:03;12.15;;;9.70;;
39400;SDS011;54391;50.000;7.360;2023-11-21T08:59:30;12.15;;;9.98;;
39400;SDS011;54391;50.000;7.360;2023-11-21T09:01:59;11.50;;;9.85;;
39400;SDS011;54391;50.000;7.360;2023-11-21T09:04:27;10.25;;;7.90;;
39400;SDS011;54391;50.000;7.360;2023-11-21T09:06:54;9.02;;;7.43;;
39400;SDS011;54391;50.000;7.360;2023-11-21T09:09:22;7.82;;;6.47;;
39400;SDS011;54391;50.000;7.360;2023-11-21T09:11:50;10.40;;;8.60;;
39400;SDS011;54391;50.000;7.360;2023-11-21T09:14:17;12.13;;;9.23;;
39400;SDS011;54391;50.000;7.360;2023-11-21T09:16:44;11.43;;;9.27;;
39400;SDS011;54391;50.000;7.360;2023-11-21T09:19:13;10.27;;;9.02;;
39400;SDS011;54391;50.000;7.360;2023-11-21T09:21:41;11.40;;;8.90;;
39400;SDS011;54391;50.000;7.360;2023-11-21T09:24:09;11.52;;;8.90;;
39400;SDS011;54391;50.000;7.360;2023-11-21T09:26:36;11.85;;;8.55;;
39400;SDS011;54391;50.000;7.360;2023-11-21T09:29:04;10.93;;;8.27;;
39400;SDS011;54391;50.000;7.360;2023-11-21T09:31:33;10.10;;;7.38;;
39400;SDS011;54391;50.000;7.360;2023-11-21T09:34:01;10.77;;;8.18;;
39400;SDS011;54391;50.000;7.360;2023-11-21T09:36:30;10.45;;;7.63;;
39400;SDS011;54391;50.000;7.360;2023-11-21T09:38:58;10.48;;;8.35;;
39400;SDS011;54391;50.000;7.360;2023-11-21T09:41:29;12.07;;;9.30;;
39400;SDS011;54391;50.000;7.360;2023-11-21T09:44:00;10.40;;;8.05;;
39400;SDS011;54391;50.000;7.360;2023-11-21T09:46:29;10.40;;;8.35;;
39400;SDS011;54391;50.000;7.360;2023-11-21T09:48:57;11.68;;;8.95;;
39400;SDS011;54391;50.000;7.360;2023-11-21T09:51:31;13.80;;;8.40;;
39400;SDS011;54391;50.000;7.360;2023-11-21T09:54:03;13.10;;;8.90;;
39400;SDS011;54391;50.000;7.360;2023-11-21T09:56:34;13.32;;;9.40;;
39400;SDS011;54391;50.000;7.360;2023-11-21T09:59:01;12.15;;;8.85;;
39400;SDS011;54391;50.000;7.360;2023-11-21T10:01:32;9.82;;;7.65;;
39400;SDS011;54391;50.000;7.360;2023-11-21T10:04:00;10.77;;;7.70;;
39400;SDS011;54391;50.000;7.360;2023-11-21T10:06:28;10.18;;;7.68;;
39400;SDS011;54391;50.000;7.360;2023-11-21T10:08:57;10.88;;;8.57;;
39400;SDS011;54391;50.000;7.360;2023-11-21T10:11:25;11.50;;;8.32;;
39400;SDS011;54391;50.000;7.360;2023-11-21T10:13:55;10.35;;;8.00;;
39400;SDS011;54391;50.000;7.360;2023-11-21T10:16:23;13.82;;;9.57;;
39400;SDS011;54391;50.000;7.360;2023-11-21T10:18:53;12.07;;;10.00;;
39400;SDS011;54391;50.000;7.360;2023-11-21T10:21:20;11.68;;;8.25;;
39400;SDS011;54391;50.000;7.360;2023-11-21T10:23:48;12.23;;;10.05;;
39400;SDS011;54391;50.000;7.360;2023-11-21T10:26:20;13.85;;;9.80;;
39400;SDS011;54391;50.000;7.360;2023-11-21T10:28:55;12.18;;;8.20;;
39400;SDS011;54391;50.000;7.360;2023-11-21T10:31:23;13.18;;;9.57;;
39400;SDS011;54391;50.000;7.360;2023-11-21T10:33:50;12.57;;;9.00;;
39400;SDS011;54391;50.000;7.360;2023-11-21T10:36:25;12.90;;;9.27;;
39400;SDS011;54391;50.000;7.360;2023-11-21T10:38:53;12.60;;;10.07;;
39400;SDS011;54391;50.000;7.360;2023-11-21T10:41:22;12.32;;;9.35;;
39400;SDS011;54391;50.000;7.360;2023-11-21T10:43:52;13.68;;;9.57;;
39400;SDS011;54391;50.000;7.360;2023-11-21T10:46:22;12.48;;;8.75;;
39400;SDS011;54391;50.000;7.360;2023-11-21T10:48:54;13.02;;;9.07;;
39400;SDS011;54391;50.000;7.360;2023-11-21T10:51:22;11.60;;;8.50;;
39400;SDS011;54391;50.000;7.360;2023-11-21T10:53:51;13.20;;;9.25;;
39400;SDS011;54391;50.000;7.360;2023-11-21T10:56:18;13.90;;;9.93;;
39400;SDS011;54391;50.000;7.360;2023-11-21T10:58:49;13.57;;;10.02;;
39400;SDS011;54391;50.000;7.360;2023-11-21T11:01:17;15.95;;;11.02;;
39400;SDS011;54391;50.000;7.360;2023-11-21T11:03:46;13.98;;;10.52;;
39400;SDS011;54391;50.000;7.360;2023-11-21T11:06:15;15.50;;;10.48;;
39400;SDS011;54391;50.000;7.360;2023-11-21T11:08:42;15.02;;;10.40;;
39400;SDS011;54391;50.000;7.360;2023-11-21T11:11:11;14.27;;;10.70;;
39400;SDS011;54391;50.000;7.360;2023-11-21T11:13:39;12.65;;;8.88;;
39400;SDS011;54391;50.000;7.360;2023-11-21T11:16:12;13.02;;;9.88;;
39400;SDS011;54391;50.000;7.360;2023-11-21T11:18:42;17.73;;;10.60;;
39400;SDS011;54391;50.000;7.360;2023-11-21T11:21:15;14.00;;;9.93;;
39400;SDS011;54391;50.000;7.360;2023-11-21T11:23:51;15.23;;;10.93;;
39400;SDS011;54391;50.000;7.360;2023-11-21T11:26:24;15.23;;;10.25;;
39400;SDS011;54391;50.000;7.360;2023-11-21T11:28:56;16.77;;;10.73;;
39400;SDS011;54391;50.000;7.360;2023-11-21T11:31:29;13.93;;;9.63;;
39400;SDS011;54391;50.000;7.360;2023-11-21T11:34:01;13.82;;;10.50;;
39400;SDS011;54391;50.000;7.360;2023-11-21T11:36:34;15.90;;;10.75;;
39400;SDS011;54391;50.000;7.360;2023-11-21T11:39:03;15.25;;;10.38;;
39400;SDS011;54391;50.000;7.360;2023-11-21T11:41:31;14.55;;;10.25;;
39400;SDS011;54391;50.000;7.360;2023-11-21T11:44:00;16.08;;;10.63;;
39400;SDS011;54391;50.000;7.360;2023-11-21T11:46:41;14.90;;;10.60;;
39400;SDS011;54391;50.000;7.360;2023-11-21T11:49:18;15.65;;;10.68;;
39400;SDS011;54391;50.000;7.360;2023-11-21T11:54:34;11.75;;;9.20;;
39400;SDS011;54391;50.000;7.360;2023-11-21T11:57:02;13.82;;;9.65;;
39400;SDS011;54391;50.000;7.360;2023-11-21T11:59:29;14.98;;;9.85;;
39400;SDS011;54391;50.000;7.360;2023-11-21T12:01:59;12.18;;;9.20;;
39400;SDS011;54391;50.000;7.360;2023-11-21T12:04:27;13.05;;;7.85;;
39400;SDS011;54391;50.000;7.360;2023-11-21T12:07:00;13.07;;;8.00;;
39400;SDS011;54391;50.000;7.360;2023-11-21T12:09:29;17.08;;;9.05;;
39400;SDS011;54391;50.000;7.360;2023-11-21T12:11:57;12.27;;;8.27;;
39400;SDS011;54391;50.000;7.360;2023-11-21T12:14:25;12.57;;;8.60;;
39400;SDS011;54391;50.000;7.360;2023-11-21T12:16:53;10.63;;;7.13;;
39400;SDS011;54391;50.000;7.360;2023-11-21T12:19:22;13.48;;;7.32;;
39400;SDS011;54391;50.000;7.360;2023-11-21T12:21:50;12.15;;;6.40;;
39400;SDS011;54391;50.000;7.360;2023-11-21T12:24:17;12.52;;;7.07;;
39400;SDS011;54391;50.000;7.360;2023-11-21T12:26:45;10.88;;;6.78;;
39400;SDS011;54391;50.000;7.360;2023-11-21T12:29:13;13.43;;;7.40;;
39400;SDS011;54391;50.000;7.360;2023-11-21T12:31:42;11.85;;;6.80;;
39400;SDS011;54391;50.000;7.360;2023-11-21T12:34:10;11.70;;;7.50;;
39400;SDS011;54391;50.000;7.360;2023-11-21T12:36:39;14.70;;;9.70;;
39400;SDS011;54391;50.000;7.360;2023-11-21T12:39:07;15.48;;;8.20;;
39400;SDS011;54391;50.000;7.360;2023-11-21T12:41:36;14.52;;;8.52;;
39400;SDS011;54391;50.000;7.360;2023-11-21T12:44:03;11.23;;;6.40;;
39400;SDS011;54391;50.000;7.360;2023-11-21T12:46:31;13.15;;;7.75;;
39400;SDS011;54391;50.000;7.360;2023-11-21T12:49:00;10.93;;;7.15;;
39400;SDS011;54391;50.000;7.360;2023-11-21T12:51:28;11.88;;;6.57;;
39400;SDS011;54391;50.000;7.360;2023-11-21T12:53:57;12.20;;;7.55;;
39400;SDS011;54391;50.000;7.360;2023-11-21T12:56:24;13.18;;;7.32;;
39400;SDS011;54391;50.000;7.360;2023-11-21T12:58:53;15.52;;;9.70;;
39400;SDS011;54391;50.000;7.360;2023-11-21T13:01:25;11.57;;;7.05;;
39400;SDS011;54391;50.000;7.360;2023-11-21T13:03:56;12.45;;;7.45;;
39400;SDS011;54391;50.000;7.360;2023-11-21T13:06:25;12.45;;;6.82;;
39400;SDS011;54391;50.000;7.360;2023-11-21T13:08:53;11.15;;;6.55;;
39400;SDS011;54391;50.000;7.360;2023-11-21T13:11:23;11.15;;;6.80;;
39400;SDS011;54391;50.000;7.360;2023-11-21T13:13:53;10.98;;;6.70;;
39400;SDS011;54391;50.000;7.360;2023-11-21T13:16:21;11.75;;;6.45;;
39400;SDS011;54391;50.000;7.360;2023-11-21T13:18:49;13.45;;;7.35;;
39400;SDS011;54391;50.000;7.360;2023-11-21T13:21:16;12.27;;;7.35;;
39400;SDS011;54391;50.000;7.360;2023-11-21T13:23:44;11.50;;;7.53;;
39400;SDS011;54391;50.000;7.360;2023-11-21T13:26:14;16.55;;;8.10;;
39400;SDS011;54391;50.000;7.360;2023-11-21T13:28:42;15.98;;;8.57;;
39400;SDS011;54391;50.000;7.360;2023-11-21T13:31:12;15.02;;;8.57;;
39400;SDS011;54391;50.000;7.360;2023-11-21T13:33:51;18.23;;;8.68;;
39400;SDS011;54391;50.000;7.360;2023-11-21T13:36:21;15.52;;;8.23;;
39400;SDS011;54391;50.000;7.360;2023-11-21T13:38:49;15.75;;;8.55;;
39400;SDS011;54391;50.000;7.360;2023-11-21T13:41:17;15.25;;;9.18;;
39400;SDS011;54391;50.000;7.360;2023-11-21T13:43:46;15.60;;;9.75;;
39400;SDS011;54391;50.000;7.360;2023-11-21T13:46:20;18.97;;;9.63;;
39400;SDS011;54391;50.000;7.360;2023-11-21T13:48:48;18.58;;;11.73;;
39400;SDS011;54391;50.000;7.360;2023-11-21T13:51:21;19.80;;;11.15;;
39400;SDS011;54391;50.000;7.360;2023-11-21T13:56:24;19.08;;;9.52;;
39400;SDS011;54391;50.000;7.360;2023-11-21T13:58:55;19.40;;;10.55;;
39400;SDS011;54391;50.000;7.360;2023-11-21T14:01:26;20.25;;;10.88;;
39400;SDS011;54391;50.000;7.360;2023-11-21T14:04:13;17.45;;;10.18;;
39400;SDS011;54391;50.000;7.360;2023-11-21T14:06:56;18.63;;;9.55;;
39400;SDS011;54391;50.000;7.360;2023-11-21T14:09:26;18.00;;;10.20;;
39400;SDS011;54391;50.000;7.360;2023-11-21T14:12:01;18.67;;;9.75;;
39400;SDS011;54391;50.000;7.360;2023-11-21T14:14:33;21.83;;;11.00;;
39400;SDS011;54391;50.000;7.360;2023-11-21T14:17:00;23.45;;;11.05;;
39400;SDS011;54391;50.000;7.360;2023-11-21T14:19:32;19.00;;;10.70;;
39400;SDS011;54391;50.000;7.360;2023-11-21T14:22:02;19.08;;;10.20;;
39400;SDS011;54391;50.000;7.360;2023-11-21T14:24:29;17.27;;;8.85;;
39400;SDS011;54391;50.000;7.360;2023-11-21T14:26:57;16.98;;;9.32;;
39400;SDS011;54391;50.000;7.360;2023-11-21T14:29:25;20.35;;;10.18;;
39400;SDS011;54391;50.000;7.360;2023-11-21T14:31:56;18.17;;;9.02;;
39400;SDS011;54391;50.000;7.360;2023-11-21T14:34:23;16.80;;;9.13;;
39400;SDS011;54391;50.000;7.360;2023-11-21T14:36:51;17.60;;;9.93;;
39400;SDS011;54391;50.000;7.360;2023-11-21T14:39:20;13.40;;;8.75;;
39400;SDS011;54391;50.000;7.360;2023-11-21T14:41:48;16.85;;;9.57;;
39400;SDS011;54391;50.000;7.360;2023-11-21T14:44:16;16.33;;;8.65;;
39400;SDS011;54391;50.000;7.360;2023-11-21T14:46:43;15.00;;;8.13;;
39400;SDS011;54391;50.000;7.360;2023-11-21T14:49:13;14.93;;;7.65;;
39400;SDS011;54391;50.000;7.360;2023-11-21T14:51:46;13.85;;;7.35;;
39400;SDS011;54391;50.000;7.360;2023-11-21T14:54:26;13.77;;;7.15;;